createdAt,value
2022-10-06T00:02:11.537Z,12.56
2022-10-06T00:04:44.827Z,12.72
2022-10-06T00:07:17.186Z,12.87
2022-10-06T00:09:48.919Z,12.97
2022-10-06T00:12:20.533Z,13.06
2022-10-06T00:14:54.531Z,13.17
2022-10-06T00:17:26.108Z,13.25
2022-10-06T00:19:57.625Z,13.32
2022-10-06T00:22:33.848Z,13.38
2022-10-06T00:25:07.701Z,13.41
2022-10-06T00:27:41.005Z,13.42
2022-10-06T00:30:23.021Z,13.45
2022-10-06T00:32:57.418Z,13.46
2022-10-06T00:35:32.611Z,13.48
2022-10-06T00:38:04.698Z,13.48
2022-10-06T00:40:39.838Z,13.49
2022-10-06T00:43:42.093Z,13.48
2022-10-06T00:46:17.912Z,13.47
2022-10-06T00:48:54.012Z,13.45
2022-10-06T00:51:28.931Z,13.45
2022-10-06T00:54:01.831Z,13.44
2022-10-06T00:56:34.818Z,13.43
2022-10-06T00:59:06.868Z,13.42
2022-10-06T01:01:42.958Z,13.42
2022-10-06T01:04:17.928Z,13.41
2022-10-06T01:06:54.064Z,13.40
2022-10-06T01:09:26.655Z,13.38
2022-10-06T01:12:02.552Z,13.36
2022-10-06T01:14:35.239Z,13.35
2022-10-06T01:17:11.571Z,13.31
2022-10-06T01:19:50.563Z,13.29
2022-10-06T01:22:28.641Z,13.26
2022-10-06T01:25:00.471Z,13.24
2022-10-06T01:27:35.078Z,13.22
2022-10-06T01:30:09.755Z,13.19
2022-10-06T01:32:46.666Z,13.16
2022-10-06T01:35:18.416Z,13.13
2022-10-06T01:37:50.047Z,13.10
2022-10-06T01:40:21.653Z,13.07
2022-10-06T01:42:55.684Z,13.03
2022-10-06T01:45:27.251Z,13.00
2022-10-06T01:48:00.054Z,12.97
2022-10-06T01:50:31.669Z,12.96
2022-10-06T01:53:07.337Z,12.97
2022-10-06T01:55:38.928Z,13.00
2022-10-06T01:58:10.953Z,13.04
2022-10-06T02:00:43.024Z,13.07
2022-10-06T02:03:16.315Z,13.10
2022-10-06T02:05:47.873Z,13.12
2022-10-06T02:08:19.496Z,13.15
2022-10-06T02:10:51.161Z,13.17
2022-10-06T02:13:25.617Z,13.19
2022-10-06T02:15:59.506Z,13.21
2022-10-06T02:18:31.802Z,13.26
2022-10-06T02:21:04.537Z,13.31
2022-10-06T02:23:38.810Z,13.38
2022-10-06T02:26:10.794Z,13.44
2022-10-06T02:28:44.220Z,13.51
2022-10-06T02:31:17.135Z,13.57
2022-10-06T02:33:53.328Z,13.64
2022-10-06T02:36:24.796Z,13.71
2022-10-06T02:38:57.553Z,13.76
2022-10-06T02:41:29.323Z,13.81
2022-10-06T02:44:02.572Z,13.85
2022-10-06T02:46:37.370Z,13.90
2022-10-06T02:49:14.741Z,13.95
2022-10-06T02:51:46.450Z,13.99
2022-10-06T02:54:18.817Z,14.05
2022-10-06T02:56:51.258Z,14.11
2022-10-06T02:59:22.834Z,14.16
2022-10-06T03:01:54.953Z,14.24
2022-10-06T03:04:27.534Z,14.31
2022-10-06T03:06:59.159Z,14.39
2022-10-06T03:09:30.879Z,14.47
2022-10-06T03:12:02.423Z,14.54
2022-10-06T03:14:34.078Z,14.60
2022-10-06T03:17:05.680Z,14.68
2022-10-06T03:19:37.335Z,14.75
2022-10-06T03:22:09.006Z,14.79
2022-10-06T03:24:41.355Z,14.85
2022-10-06T03:27:12.955Z,14.91
2022-10-06T03:29:46.696Z,14.94
2022-10-06T03:32:18.342Z,14.97
2022-10-06T03:34:51.653Z,14.99
2022-10-06T03:37:23.317Z,15.02
2022-10-06T03:39:55.718Z,15.04
2022-10-06T03:42:27.754Z,15.07
2022-10-06T03:45:00.204Z,15.09
2022-10-06T03:47:33.398Z,15.11
2022-10-06T03:50:11.991Z,15.12
2022-10-06T03:52:43.555Z,15.13
2022-10-06T03:55:15.298Z,15.13
2022-10-06T03:57:46.858Z,15.10
2022-10-06T04:00:21.462Z,15.06
2022-10-06T04:02:53.543Z,15.02
2022-10-06T04:05:26.350Z,14.96
2022-10-06T04:07:57.907Z,14.91
2022-10-06T04:10:40.917Z,14.86
2022-10-06T04:13:12.513Z,14.80
2022-10-06T04:15:44.098Z,14.76
2022-10-06T04:18:16.786Z,14.71
2022-10-06T04:20:50.807Z,14.68
2022-10-06T04:23:23.365Z,14.63
2022-10-06T04:26:02.826Z,14.58
2022-10-06T04:28:34.879Z,14.54
2022-10-06T04:31:12.511Z,14.49
2022-10-06T04:33:45.885Z,14.46
2022-10-06T04:36:23.040Z,14.42
2022-10-06T04:38:56.399Z,14.40
2022-10-06T04:41:31.810Z,14.40
2022-10-06T04:44:04.062Z,14.42
2022-10-06T04:46:44.961Z,14.47
2022-10-06T04:49:20.239Z,14.51
2022-10-06T04:51:53.114Z,14.55
2022-10-06T04:54:24.710Z,14.58
2022-10-06T04:56:56.822Z,14.59
2022-10-06T04:59:42.715Z,14.59
2022-10-06T05:02:14.453Z,14.58
2022-10-06T05:04:46.072Z,14.56
2022-10-06T05:07:18.039Z,14.53
2022-10-06T05:09:50.076Z,14.49
2022-10-06T05:12:23.970Z,14.46
2022-10-06T05:14:56.389Z,14.43
2022-10-06T05:17:28.269Z,14.42
2022-10-06T05:20:00.823Z,14.43
2022-10-06T05:22:32.555Z,14.44
2022-10-06T05:25:04.234Z,14.46
2022-10-06T05:27:36.151Z,14.49
2022-10-06T05:30:11.884Z,14.50
2022-10-06T05:32:46.448Z,14.51
2022-10-06T05:35:19.387Z,14.54
2022-10-06T05:37:56.897Z,14.58
2022-10-06T05:40:28.467Z,14.64
2022-10-06T05:43:00.926Z,14.69
2022-10-06T05:45:32.549Z,14.74
2022-10-06T05:48:04.278Z,14.80
2022-10-06T05:50:36.108Z,14.86
2022-10-06T05:53:10.855Z,14.90
2022-10-06T05:55:44.248Z,14.94
2022-10-06T05:58:18.615Z,15.00
2022-10-06T06:00:50.277Z,15.04
2022-10-06T06:03:21.953Z,15.06
2022-10-06T06:05:53.540Z,15.08
2022-10-06T06:08:25.199Z,15.10
2022-10-06T06:10:56.765Z,15.13
2022-10-06T06:13:28.450Z,15.19
2022-10-06T06:16:04.519Z,15.30
2022-10-06T06:18:37.888Z,15.40
2022-10-06T06:21:11.690Z,15.47
2022-10-06T06:23:46.648Z,15.51
2022-10-06T06:26:19.724Z,15.52
2022-10-06T06:28:51.791Z,15.52
2022-10-06T06:31:26.744Z,15.53
2022-10-06T06:34:00.897Z,15.53
2022-10-06T06:36:35.855Z,15.54
2022-10-06T06:39:10.610Z,15.53
2022-10-06T06:41:44.968Z,15.53
2022-10-06T06:44:17.028Z,15.54
2022-10-06T06:46:49.454Z,15.55
2022-10-06T06:49:22.145Z,15.58
2022-10-06T06:51:54.627Z,15.61
2022-10-06T06:54:27.413Z,15.63
2022-10-06T06:56:59.960Z,15.64
2022-10-06T06:59:34.174Z,15.67
2022-10-06T07:02:05.808Z,15.70
2022-10-06T07:04:37.523Z,15.73
2022-10-06T07:07:09.874Z,15.77
2022-10-06T07:09:41.584Z,15.79
2022-10-06T07:12:13.169Z,15.80
2022-10-06T07:14:58.765Z,15.85
2022-10-06T07:17:47.814Z,15.93
2022-10-06T07:20:41.813Z,16.01
2022-10-06T07:23:36.644Z,16.10
2022-10-06T07:26:08.426Z,16.15
2022-10-06T07:28:42.503Z,16.21
2022-10-06T07:31:15.429Z,16.31
2022-10-06T07:33:47.305Z,16.41
2022-10-06T07:36:18.990Z,16.53
2022-10-06T07:38:50.537Z,16.63
2022-10-06T07:41:22.300Z,16.67
2022-10-06T07:43:54.729Z,16.67
2022-10-06T07:46:27.028Z,16.68
2022-10-06T07:48:59.169Z,16.72
2022-10-06T07:51:44.069Z,16.75
2022-10-06T07:54:27.534Z,16.79
2022-10-06T07:57:02.029Z,16.81
2022-10-06T07:59:34.863Z,16.85
2022-10-06T08:02:06.690Z,16.94
2022-10-06T08:04:38.321Z,17.08
2022-10-06T08:07:10.665Z,17.15
2022-10-06T08:09:42.418Z,17.25
2022-10-06T08:12:31.363Z,17.31
2022-10-06T08:15:07.058Z,17.34
2022-10-06T08:17:39.837Z,17.41
2022-10-06T08:20:14.133Z,17.41
2022-10-06T08:22:50.380Z,17.42
2022-10-06T08:25:22.095Z,17.36
2022-10-06T08:27:53.888Z,17.23
2022-10-06T08:30:34.606Z,17.16
2022-10-06T08:33:13.629Z,17.12
2022-10-06T08:35:45.332Z,17.20
2022-10-06T08:38:16.980Z,17.45
2022-10-06T08:40:49.692Z,17.85
2022-10-06T08:43:26.115Z,18.12
2022-10-06T08:46:02.945Z,18.32
2022-10-06T08:48:38.879Z,18.45
2022-10-06T08:51:26.739Z,18.49
2022-10-06T08:54:08.523Z,18.53
2022-10-06T08:56:54.467Z,18.61
2022-10-06T08:59:26.258Z,18.81
2022-10-06T09:01:59.817Z,18.79
2022-10-06T09:04:35.256Z,18.78
2022-10-06T09:07:18.027Z,18.72
2022-10-06T09:10:21.689Z,18.73
2022-10-06T09:12:58.635Z,18.55
2022-10-06T09:15:39.363Z,18.34
2022-10-06T09:18:11.543Z,18.21
2022-10-06T09:20:52.531Z,18.14
2022-10-06T09:23:42.783Z,18.16
2022-10-06T09:26:17.375Z,18.23
2022-10-06T09:28:48.973Z,18.34
2022-10-06T09:31:27.329Z,18.35
2022-10-06T09:34:05.540Z,18.32
2022-10-06T09:37:10.452Z,18.40
2022-10-06T09:39:43.933Z,18.45
2022-10-06T09:42:21.068Z,18.45
2022-10-06T09:45:05.923Z,18.44
2022-10-06T09:47:41.071Z,18.50
2022-10-06T09:50:24.687Z,18.58
2022-10-06T09:53:16.300Z,18.63
2022-10-06T09:55:54.930Z,18.69
2022-10-06T09:58:34.390Z,18.72
2022-10-06T10:01:09.764Z,18.74
2022-10-06T10:06:43.687Z,18.82
2022-10-06T10:09:25.639Z,18.87
2022-10-06T10:12:27.322Z,18.91
2022-10-06T10:15:03.304Z,18.93
2022-10-06T10:17:45.858Z,18.95
2022-10-06T10:20:31.067Z,18.89
2022-10-06T10:23:05.562Z,18.73
2022-10-06T10:25:52.044Z,18.70
2022-10-06T10:28:50.943Z,18.67
2022-10-06T10:31:32.976Z,18.66
2022-10-06T10:34:24.015Z,18.74
2022-10-06T10:37:03.568Z,18.80
2022-10-06T10:39:41.328Z,18.83
2022-10-06T10:42:21.140Z,18.82
2022-10-06T10:44:58.358Z,18.86
2022-10-06T10:47:35.439Z,18.92
2022-10-06T10:50:17.345Z,19.02
2022-10-06T10:52:59.363Z,19.11
2022-10-06T10:55:37.092Z,19.19
2022-10-06T10:58:18.791Z,19.31
2022-10-06T11:00:56.494Z,19.46
2022-10-06T11:03:29.014Z,19.52
2022-10-06T11:06:22.359Z,19.58
2022-10-06T11:09:02.728Z,19.51
2022-10-06T11:11:49.966Z,19.51
2022-10-06T11:14:36.003Z,19.58
2022-10-06T11:17:19.802Z,19.56
2022-10-06T11:19:58.901Z,19.60
2022-10-06T11:22:44.301Z,19.56
2022-10-06T11:25:34.227Z,19.55
2022-10-06T11:28:19.848Z,19.49
2022-10-06T11:31:06.253Z,19.39
2022-10-06T11:33:47.565Z,19.34
2022-10-06T11:36:29.498Z,19.43
2022-10-06T11:39:09.343Z,19.48
2022-10-06T11:41:44.547Z,19.56
2022-10-06T11:44:23.864Z,19.65
2022-10-06T11:46:59.815Z,19.71
2022-10-06T11:49:58.617Z,19.76
2022-10-06T11:52:48.329Z,19.87
2022-10-06T11:55:26.470Z,19.92
2022-10-06T11:58:41.501Z,19.91
2022-10-06T12:01:08.506Z,19.97
2022-10-06T12:04:13.530Z,19.96
2022-10-06T12:10:53.105Z,20.03
2022-10-06T12:14:26.642Z,20.08
2022-10-06T12:17:05.629Z,20.06
2022-10-06T12:19:44.135Z,20.02
2022-10-06T12:22:25.727Z,19.97
2022-10-06T12:25:04.130Z,19.95
2022-10-06T12:27:59.240Z,19.96
2022-10-06T12:30:43.546Z,19.94
2022-10-06T12:33:36.344Z,19.91
2022-10-06T12:36:38.398Z,19.91
2022-10-06T12:39:25.814Z,19.77
2022-10-06T12:42:02.026Z,19.69
2022-10-06T12:44:38.529Z,19.61
2022-10-06T12:47:16.941Z,19.58
2022-10-06T12:49:53.945Z,19.61
2022-10-06T12:52:44.622Z,19.66
2022-10-06T12:55:36.007Z,19.74
2022-10-06T12:58:17.073Z,19.72
2022-10-06T13:00:50.222Z,19.57
2022-10-06T13:03:26.261Z,19.56
2022-10-06T13:06:00.117Z,19.56
2022-10-06T13:08:32.855Z,19.59
2022-10-06T13:11:25.023Z,19.60
2022-10-06T13:13:58.634Z,19.65
2022-10-06T13:16:33.009Z,19.68
2022-10-06T13:19:04.790Z,19.72
2022-10-06T13:21:38.190Z,19.76
2022-10-06T13:24:13.813Z,19.79
2022-10-06T13:26:49.668Z,19.80
2022-10-06T13:29:27.602Z,19.79
2022-10-06T13:31:59.229Z,19.71
2022-10-06T13:34:34.850Z,19.73
2022-10-06T13:37:06.637Z,19.71
2022-10-06T13:39:38.522Z,19.62
2022-10-06T13:42:18.625Z,19.52
2022-10-06T13:44:56.584Z,19.43
2022-10-06T13:47:30.386Z,19.41
2022-10-06T13:50:05.867Z,19.38
2022-10-06T13:52:40.054Z,19.38
2022-10-06T13:55:21.892Z,19.30
2022-10-06T13:58:09.298Z,19.28
2022-10-06T14:00:54.609Z,19.14
2022-10-06T14:03:29.433Z,19.00
2022-10-06T14:06:16.032Z,18.99
2022-10-06T14:08:51.340Z,19.03
2022-10-06T14:11:28.331Z,19.02
2022-10-06T14:14:02.252Z,18.99
2022-10-06T14:16:34.179Z,18.99
2022-10-06T14:19:07.380Z,19.01
2022-10-06T14:21:42.013Z,19.02
2022-10-06T14:24:27.041Z,19.02
2022-10-06T14:27:04.891Z,19.01
2022-10-06T14:29:38.907Z,19.01
2022-10-06T14:32:14.713Z,18.97
2022-10-06T14:34:47.154Z,18.91
2022-10-06T14:37:18.700Z,18.87
2022-10-06T14:39:54.897Z,18.87
2022-10-06T14:42:26.534Z,18.82
2022-10-06T14:44:58.269Z,18.77
2022-10-06T14:47:31.707Z,18.75
2022-10-06T14:50:03.535Z,18.69
2022-10-06T14:52:35.081Z,18.64
2022-10-06T14:55:10.435Z,18.59
2022-10-06T14:57:42.227Z,18.56
2022-10-06T15:00:21.985Z,18.52
2022-10-06T15:02:53.584Z,18.46
2022-10-06T15:05:26.425Z,18.42
2022-10-06T15:08:13.071Z,18.40
2022-10-06T15:10:53.867Z,18.37
2022-10-06T15:13:24.184Z,18.30
2022-10-06T15:16:02.597Z,18.20
2022-10-06T15:18:38.426Z,18.09
2022-10-06T15:21:14.037Z,17.99
2022-10-06T15:23:46.278Z,17.91
2022-10-06T15:26:35.149Z,17.80
2022-10-06T15:29:07.042Z,17.71
2022-10-06T15:31:40.501Z,17.61
2022-10-06T15:34:14.143Z,17.52
2022-10-06T15:36:45.794Z,17.42
2022-10-06T15:39:19.528Z,17.35
2022-10-06T15:41:52.452Z,17.26
2022-10-06T15:44:24.273Z,17.15
2022-10-06T15:46:57.489Z,17.04
2022-10-06T15:49:30.474Z,16.94
2022-10-06T15:52:04.895Z,16.82
2022-10-06T15:54:38.573Z,16.72
2022-10-06T15:57:15.041Z,16.61
2022-10-06T15:59:48.343Z,16.49
2022-10-06T16:02:21.901Z,16.39
2022-10-06T16:05:17.220Z,16.30
2022-10-06T16:07:48.841Z,16.19
2022-10-06T16:10:23.842Z,16.07
2022-10-06T16:12:55.693Z,15.96
2022-10-06T16:15:27.264Z,15.87
2022-10-06T16:17:58.831Z,15.77
2022-10-06T16:20:38.803Z,15.67
2022-10-06T16:23:11.257Z,15.57
2022-10-06T16:25:42.821Z,15.48
2022-10-06T16:28:15.790Z,15.40
2022-10-06T16:30:56.639Z,15.32
2022-10-06T16:33:28.297Z,15.21
2022-10-06T16:36:00.503Z,15.13
2022-10-06T16:38:32.194Z,15.03
2022-10-06T16:41:05.178Z,14.94
2022-10-06T16:43:38.977Z,14.85
2022-10-06T16:46:12.786Z,14.76
2022-10-06T16:48:46.349Z,14.67
2022-10-06T16:51:19.750Z,14.58
2022-10-06T16:53:53.181Z,14.49
2022-10-06T16:56:27.038Z,14.40
2022-10-06T16:59:00.323Z,14.32
2022-10-06T17:01:34.618Z,14.25
2022-10-06T17:04:07.996Z,14.16
2022-10-06T17:06:40.744Z,14.09
2022-10-06T17:09:14.483Z,14.02
2022-10-06T17:11:48.360Z,13.96
2022-10-06T17:14:21.393Z,13.89
2022-10-06T17:16:56.018Z,13.83
2022-10-06T17:19:29.897Z,13.76
2022-10-06T17:22:01.505Z,13.70
2022-10-06T17:24:39.618Z,13.64
2022-10-06T17:27:11.492Z,13.59
2022-10-06T17:29:44.743Z,13.53
2022-10-06T17:32:16.778Z,13.47
2022-10-06T17:34:48.361Z,13.41
2022-10-06T17:37:21.882Z,13.33
2022-10-06T17:39:53.471Z,13.26
2022-10-06T17:42:25.183Z,13.20
2022-10-06T17:44:56.866Z,13.14
2022-10-06T17:47:29.432Z,13.09
2022-10-06T17:50:00.986Z,13.03
2022-10-06T17:52:38.796Z,12.97
2022-10-06T17:55:11.676Z,12.92
2022-10-06T17:57:43.178Z,12.85
2022-10-06T18:00:21.553Z,12.80
2022-10-06T18:03:00.421Z,12.74
2022-10-06T18:05:33.165Z,12.69
2022-10-06T18:08:05.585Z,12.64
2022-10-06T18:10:59.113Z,12.59
2022-10-06T18:13:32.234Z,12.53
2022-10-06T18:16:04.075Z,12.48
2022-10-06T18:18:35.707Z,12.42
2022-10-06T18:21:09.659Z,12.36
2022-10-06T18:23:42.831Z,12.32
2022-10-06T18:26:17.794Z,12.28
2022-10-06T18:28:50.913Z,12.23
2022-10-06T18:31:22.606Z,12.18
2022-10-06T18:36:46.786Z,12.07
2022-10-06T18:39:18.359Z,12.01
2022-10-06T18:41:51.216Z,11.97
2022-10-06T18:44:36.678Z,11.92
2022-10-06T18:47:26.045Z,11.87
2022-10-06T18:49:58.398Z,11.80
2022-10-06T18:52:30.041Z,11.75
2022-10-06T18:55:01.599Z,11.70
2022-10-06T18:57:33.520Z,11.65
2022-10-06T19:00:05.414Z,11.61
2022-10-06T19:02:44.916Z,11.57
2022-10-06T19:05:19.978Z,11.48
2022-10-06T19:07:53.000Z,11.42
2022-10-06T19:10:24.717Z,11.35
2022-10-06T19:12:58.361Z,11.26
2022-10-06T19:15:30.134Z,11.24
2022-10-06T19:18:01.972Z,11.22
2022-10-06T19:20:33.735Z,11.19
2022-10-06T19:23:06.408Z,11.14
2022-10-06T19:25:38.415Z,11.13
2022-10-06T19:28:10.311Z,11.11
2022-10-06T19:30:42.204Z,11.09
2022-10-06T19:33:14.165Z,11.05
2022-10-06T19:35:55.378Z,10.97
2022-10-06T19:38:28.199Z,10.84
2022-10-06T19:41:19.701Z,10.79
2022-10-06T19:43:51.510Z,10.77
2022-10-06T19:46:23.154Z,10.77
2022-10-06T19:48:56.704Z,10.76
2022-10-06T19:51:28.291Z,10.69
2022-10-06T19:54:00.092Z,10.64
2022-10-06T19:56:33.236Z,10.63
2022-10-06T19:59:05.763Z,10.62
2022-10-06T20:01:37.389Z,10.63
2022-10-06T20:04:09.788Z,10.58
2022-10-06T20:06:42.575Z,10.57
2022-10-06T20:09:19.132Z,10.54
2022-10-06T20:11:51.769Z,10.52
2022-10-06T20:14:25.555Z,10.49
2022-10-06T20:16:58.753Z,10.47
2022-10-06T20:19:31.162Z,10.46
2022-10-06T20:22:02.959Z,10.44
2022-10-06T20:24:35.352Z,10.42
2022-10-06T20:27:07.011Z,10.39
2022-10-06T20:29:38.608Z,10.36
2022-10-06T20:32:10.198Z,10.35
2022-10-06T20:34:42.915Z,10.31
2022-10-06T20:37:14.488Z,10.21
2022-10-06T20:40:03.667Z,10.13
2022-10-06T20:42:35.294Z,10.11
2022-10-06T20:45:09.583Z,10.10
2022-10-06T20:47:41.574Z,10.09
2022-10-06T20:50:21.291Z,10.08
2022-10-06T20:52:53.422Z,10.05
2022-10-06T20:55:24.977Z,10.02
2022-10-06T20:57:57.238Z,10.00
2022-10-06T21:00:31.330Z,9.98
2022-10-06T21:03:03.021Z,9.91
2022-10-06T21:05:34.747Z,9.77
2022-10-06T21:08:06.376Z,9.67
2022-10-06T21:10:40.525Z,9.64
2022-10-06T21:13:12.226Z,9.65
2022-10-06T21:15:47.206Z,9.64
2022-10-06T21:18:18.920Z,9.60
2022-10-06T21:21:02.189Z,9.58
2022-10-06T21:23:38.894Z,9.53
2022-10-06T21:26:12.603Z,9.49
2022-10-06T21:28:44.305Z,9.42
2022-10-06T21:31:19.479Z,9.39
2022-10-06T21:33:52.125Z,9.34
2022-10-06T21:36:25.912Z,9.32
2022-10-06T21:38:59.094Z,9.30
2022-10-06T21:41:35.924Z,9.31
2022-10-06T21:44:09.435Z,9.30
2022-10-06T21:46:43.545Z,9.31
2022-10-06T21:49:16.552Z,9.29
2022-10-06T21:51:52.479Z,9.27
2022-10-06T21:54:24.827Z,9.24
2022-10-06T21:56:56.437Z,9.23
2022-10-06T21:59:28.258Z,9.21
2022-10-06T22:02:01.595Z,9.21
2022-10-06T22:04:33.473Z,9.19
2022-10-06T22:07:05.242Z,9.18
2022-10-06T22:09:36.793Z,9.16
2022-10-06T22:12:08.522Z,9.14
2022-10-06T22:14:40.112Z,9.11
2022-10-06T22:17:12.554Z,9.07
2022-10-06T22:19:44.207Z,9.05
2022-10-06T22:22:17.602Z,9.02
2022-10-06T22:24:49.164Z,8.94
2022-10-06T22:27:20.901Z,8.88
2022-10-06T22:29:52.522Z,8.88
2022-10-06T22:32:25.982Z,8.83
2022-10-06T22:34:57.655Z,8.77
2022-10-06T22:37:29.383Z,8.78
2022-10-06T22:40:05.379Z,8.78
2022-10-06T22:42:42.848Z,8.78
2022-10-06T22:45:14.617Z,8.74
2022-10-06T22:47:46.538Z,8.68
2022-10-06T22:50:20.905Z,8.64
2022-10-06T22:52:53.456Z,8.58
2022-10-06T22:55:25.074Z,8.50
2022-10-06T22:57:56.671Z,8.40
2022-10-06T23:00:29.042Z,8.29
2022-10-06T23:03:01.836Z,8.26
2022-10-06T23:05:34.081Z,8.24
2022-10-06T23:08:08.720Z,8.27
2022-10-06T23:10:40.322Z,8.31
2022-10-06T23:13:15.230Z,8.30
2022-10-06T23:15:47.005Z,8.23
2022-10-06T23:18:18.634Z,8.21
2022-10-06T23:20:50.316Z,8.24
2022-10-06T23:23:23.550Z,8.25
2022-10-06T23:25:55.078Z,8.25
2022-10-06T23:28:26.740Z,8.24
2022-10-06T23:30:58.425Z,8.23
2022-10-06T23:33:33.009Z,8.23
2022-10-06T23:36:06.515Z,8.22
2022-10-06T23:38:39.092Z,8.23
2022-10-06T23:41:10.699Z,8.23
2022-10-06T23:43:44.095Z,8.22
2022-10-06T23:46:16.216Z,8.15
2022-10-06T23:48:47.904Z,8.08
2022-10-06T23:51:19.636Z,8.05
2022-10-06T23:53:53.024Z,8.06
2022-10-06T23:56:25.576Z,8.08
2022-10-06T23:58:57.232Z,8.09
